Reno, NV (89501)

9:38 AM PDT on August 30, 2015 (GMT -0700)
UNR Campus, LMR Roof | | Change Station
CLOSE
Current Station
Personal Weather Station
Location: Reno, NV
Elevation: 4570 ft
Nearby Weather Stations

Elev 4570 ft 39.54 °N, 119.81 °W | Updated 2 seconds ago

Mostly Cloudy
Mostly Cloudy
69.5 °F
Feels Like 69.5 °F
N
2.2
Wind Variable Wind from SSE
Gusts 0.0 mph

Today
High -- | Low -- °F
--% Chance of Precip.
Yesterday
High -- | Low -- °F
Precip. -- in
6:25 AM 7:33 PM
Full, 99% visible
Pressure 29.95 in
Visibility 10.0 miles
Clouds Few 7000 ft
Few 13000 ft
Mostly Cloudy 20000 ft
Mostly Cloudy 25000 ft
Dew Point 46 °F
Humidity 43%
Rainfall 0.00 in
Snow Depth Not available.
UV 2 out of 12
Pollen 8.50 out of 12
Air Quality Not available.
Flu Activity Not available.
METAR KRNO 301555Z 00000KT 10SM FEW070 FEW130 BKN200 BKN250 19/08 A3009 RMK AO2 SLP141 T01890078 $
Pressure 29.95 in
Visibility 10.0 miles
Clouds Few 7000 ft
Few 13000 ft
Mostly Cloudy 20000 ft
Mostly Cloudy 25000 ft
Dew Point 46 °F
Humidity 43%
Rainfall 0.00 in
Snow Depth Not available.
UV 2 out of 12
Pollen 8.50 out of 12
Air Quality Not available.
Flu Activity Not available.
METAR KRNO 301555Z 00000KT 10SM FEW070 FEW130 BKN200 BKN250 19/08 A3009 RMK AO2 SLP141 T01890078 $

10-Day Weather Forecast

×

Almanac

Astronomy

Aug. 30, 2015 Rise Set
Actual Time
Civil Twilight
Nautical Twilight
Astronomical Twilight
Moon
Length of Visible Light
Length of Day
Tomorrow will be .
, % of the Moon is Illuminated

Today's Extremes

State Highs State Lows

Community

WunderPhotos

Upload Photos

1,851,008 photos uploaded!

WunderBlogs® & News

Nearby

Air Quality

  Air Quality AQ Index Pollutant
Not available.

Snow Depth

Station Depth Elevation

Earthquake Activity

City Distance Mag. Time & Date
Minimum magnitude displayed is 2.5.

Coastal Water Temperatures

Place Temperature

Stations

Nearby Weather Stations

Station Location Temp. Windchill Dew Point Humidity Wind Precip. Elev Updated Type